createdAt,value
2023-02-14T00:00:01.926Z,17.00
2023-02-14T00:04:04.010Z,12.60
2023-02-14T00:07:59.109Z,12.40
2023-02-14T00:11:40.340Z,13.40
2023-02-14T00:15:21.542Z,14.80
2023-02-14T00:19:03.203Z,13.10
2023-02-14T00:22:25.838Z,19.00
2023-02-14T00:26:22.329Z,16.00
2023-02-14T00:30:04.829Z,14.90
2023-02-14T00:33:28.976Z,13.80
2023-02-14T00:37:26.560Z,17.50
2023-02-14T00:40:49.313Z,13.40
2023-02-14T00:44:28.779Z,14.00
2023-02-14T00:48:23.679Z,17.90
2023-02-14T00:51:45.907Z,16.10
2023-02-14T00:55:48.764Z,15.90
2023-02-14T00:59:11.593Z,19.40
2023-02-14T01:03:07.687Z,13.60
2023-02-14T01:06:51.050Z,18.00
2023-02-14T01:10:15.568Z,17.30
2023-02-14T01:13:56.411Z,15.00
2023-02-14T01:17:30.877Z,15.10
2023-02-14T01:21:33.319Z,13.40
2023-02-14T01:25:14.536Z,13.50
2023-02-14T01:28:37.848Z,16.70
2023-02-14T01:32:14.354Z,15.30
2023-02-14T01:35:52.321Z,11.90
2023-02-14T01:39:31.286Z,16.00
2023-02-14T01:43:31.800Z,14.70
2023-02-14T01:47:23.950Z,11.90
2023-02-14T01:50:50.319Z,10.20
2023-02-14T01:54:27.821Z,13.00
2023-02-14T01:58:27.730Z,12.70
2023-02-14T02:01:55.125Z,14.80
2023-02-14T02:05:27.887Z,14.20
2023-02-14T02:09:34.998Z,12.20
2023-02-14T02:13:18.816Z,14.80
2023-02-14T02:17:24.774Z,9.90
2023-02-14T02:20:53.065Z,16.10
2023-02-14T02:25:02.198Z,14.50
2023-02-14T02:29:14.567Z,13.00
2023-02-14T02:32:57.100Z,12.40
2023-02-14T02:36:45.590Z,12.90
2023-02-14T02:40:44.691Z,14.40
2023-02-14T02:45:06.062Z,12.30
2023-02-14T02:48:45.030Z,11.50
2023-02-14T02:53:05.451Z,15.50
2023-02-14T02:56:47.431Z,11.50
2023-02-14T03:00:29.982Z,13.50
2023-02-14T03:04:16.149Z,11.00
2023-02-14T03:07:58.080Z,12.00
2023-02-14T03:11:55.988Z,13.90
2023-02-14T03:15:38.550Z,14.30
2023-02-14T03:20:14.647Z,12.90
2023-02-14T03:24:02.558Z,13.40
2023-02-14T03:27:59.105Z,10.50
2023-02-14T03:31:32.119Z,14.90
2023-02-14T03:35:01.768Z,16.80
2023-02-14T03:38:45.645Z,12.50
2023-02-14T03:42:26.145Z,12.50
2023-02-14T03:45:58.885Z,11.00
2023-02-14T03:49:33.543Z,13.00
2023-02-14T03:53:09.987Z,11.10
2023-02-14T03:56:53.144Z,9.80
2023-02-14T04:00:45.470Z,13.10
2023-02-14T04:04:08.997Z,11.80
2023-02-14T04:08:04.126Z,10.80
2023-02-14T04:11:27.232Z,13.70
2023-02-14T04:15:23.129Z,12.20
2023-02-14T04:19:22.530Z,14.70
2023-02-14T04:23:03.812Z,14.70
2023-02-14T04:26:25.690Z,10.30
2023-02-14T04:30:04.934Z,10.10
2023-02-14T04:33:41.135Z,11.30
2023-02-14T04:37:21.999Z,12.00
2023-02-14T04:40:57.966Z,13.00
2023-02-14T04:44:34.196Z,11.60
2023-02-14T04:48:12.091Z,15.40
2023-02-14T04:52:10.657Z,23.10
2023-02-14T04:55:35.070Z,12.50
2023-02-14T04:59:12.270Z,13.50
2023-02-14T05:02:51.347Z,12.40
2023-02-14T05:06:30.854Z,14.30
2023-02-14T05:10:24.256Z,11.40
2023-02-14T05:13:46.467Z,9.50
2023-02-14T05:17:24.583Z,10.30
2023-02-14T05:21:21.057Z,11.20
2023-02-14T05:25:02.407Z,13.50
2023-02-14T05:28:43.660Z,11.60
2023-02-14T05:32:05.941Z,10.30
2023-02-14T05:35:46.634Z,13.60
2023-02-14T05:39:21.132Z,12.00
2023-02-14T05:43:00.470Z,12.80
2023-02-14T05:46:36.396Z,14.90
2023-02-14T05:50:33.181Z,17.00
2023-02-14T05:54:14.658Z,13.70
2023-02-14T05:57:58.616Z,18.20
2023-02-14T06:01:23.492Z,14.00
2023-02-14T06:04:58.994Z,14.90
2023-02-14T06:08:55.413Z,15.40
2023-02-14T06:12:17.441Z,11.80
2023-02-14T06:15:55.050Z,15.30
2023-02-14T06:19:32.726Z,13.20
2023-02-14T06:23:11.188Z,17.80
2023-02-14T06:26:48.031Z,13.90
2023-02-14T06:30:46.286Z,18.10
2023-02-14T06:34:27.407Z,12.30
2023-02-14T06:37:49.539Z,13.00
2023-02-14T06:41:27.150Z,14.80
2023-02-14T06:45:24.688Z,15.50
2023-02-14T06:49:05.894Z,13.30
2023-02-14T06:52:46.870Z,14.70
2023-02-14T06:56:30.657Z,12.60
2023-02-14T06:59:52.379Z,15.30
2023-02-14T07:03:48.951Z,15.10
2023-02-14T07:07:16.223Z,13.40
2023-02-14T07:11:07.721Z,12.20
2023-02-14T07:14:48.946Z,11.90
2023-02-14T07:18:12.466Z,15.00
2023-02-14T07:22:08.748Z,14.20
2023-02-14T07:25:31.062Z,15.60
2023-02-14T07:29:08.639Z,13.20
2023-02-14T07:33:05.098Z,13.90
2023-02-14T07:36:31.553Z,17.60
2023-02-14T07:40:24.591Z,12.60
2023-02-14T07:44:05.749Z,13.80
2023-02-14T07:47:29.339Z,13.30
2023-02-14T07:51:24.371Z,13.50
2023-02-14T07:55:06.835Z,12.80
2023-02-14T07:58:29.178Z,15.60
2023-02-14T08:02:11.328Z,14.90
2023-02-14T08:05:57.284Z,15.30
2023-02-14T08:09:25.780Z,17.30
2023-02-14T08:13:19.813Z,13.10
2023-02-14T08:17:03.730Z,15.40
2023-02-14T08:20:50.877Z,33.10
2023-02-14T08:24:34.340Z,11.40
2023-02-14T08:27:57.682Z,12.20
2023-02-14T08:31:38.491Z,14.40
2023-02-14T08:35:12.043Z,14.20
2023-02-14T08:39:12.525Z,13.90
2023-02-14T08:42:36.442Z,15.80
2023-02-14T08:46:16.865Z,19.60
2023-02-14T08:50:14.417Z,16.70
2023-02-14T08:53:55.631Z,10.10
2023-02-14T08:57:18.662Z,19.20
2023-02-14T09:00:55.903Z,20.50
2023-02-14T09:04:35.449Z,13.30
2023-02-14T09:08:12.985Z,18.70
2023-02-14T09:12:09.534Z,14.00
2023-02-14T09:15:50.615Z,14.50
2023-02-14T09:19:12.903Z,15.60
2023-02-14T09:23:09.745Z,18.70
2023-02-14T09:26:38.891Z,13.70
2023-02-14T09:30:28.824Z,20.40
2023-02-14T09:34:30.560Z,14.50
2023-02-14T09:38:12.574Z,11.60
2023-02-14T09:41:58.169Z,12.00
2023-02-14T09:45:43.068Z,15.20
2023-02-14T09:49:34.996Z,10.90
2023-02-14T09:53:26.654Z,13.80
2023-02-14T09:57:11.762Z,9.00
2023-02-14T10:01:10.527Z,18.40
2023-02-14T10:04:49.907Z,14.60
2023-02-14T10:08:47.484Z,10.80
2023-02-14T10:12:47.696Z,11.20
2023-02-14T10:16:33.576Z,11.60
2023-02-14T10:20:27.451Z,9.60
2023-02-14T10:23:56.361Z,11.40
2023-02-14T10:27:48.973Z,9.10
2023-02-14T10:31:20.496Z,9.50
2023-02-14T10:34:51.784Z,9.20
2023-02-14T10:38:41.550Z,9.30
2023-02-14T10:42:25.948Z,11.70
2023-02-14T10:46:40.485Z,12.20
2023-02-14T10:50:44.890Z,14.40
2023-02-14T10:54:25.845Z,12.40
2023-02-14T10:57:53.826Z,10.40
2023-02-14T11:01:26.358Z,11.70
2023-02-14T11:05:05.077Z,11.10
2023-02-14T11:08:43.288Z,9.30
2023-02-14T11:12:37.994Z,12.80
2023-02-14T11:16:04.190Z,12.40
2023-02-14T11:19:38.959Z,12.60
2023-02-14T11:23:21.034Z,13.20
2023-02-14T11:27:05.273Z,9.20
2023-02-14T11:30:51.896Z,13.10
2023-02-14T11:34:39.367Z,14.00
2023-02-14T11:38:33.649Z,9.30
2023-02-14T11:42:01.328Z,15.60
2023-02-14T11:45:40.155Z,9.90
2023-02-14T11:49:55.764Z,12.60
2023-02-14T11:53:51.530Z,12.90
2023-02-14T11:57:18.846Z,17.50
2023-02-14T12:01:25.919Z,12.40
2023-02-14T12:04:52.953Z,13.50
2023-02-14T12:08:44.911Z,12.60
2023-02-14T12:12:27.605Z,11.10
2023-02-14T12:15:54.650Z,11.50
2023-02-14T12:19:54.007Z,12.80
2023-02-14T12:23:22.538Z,8.00
2023-02-14T12:27:29.082Z,15.00
2023-02-14T12:30:52.612Z,14.10
2023-02-14T12:34:29.848Z,18.10
2023-02-14T12:38:35.836Z,14.40
2023-02-14T12:42:25.558Z,8.20
2023-02-14T12:46:43.857Z,12.80
2023-02-14T12:50:24.851Z,16.50
2023-02-14T12:54:23.991Z,14.10
2023-02-14T12:58:01.271Z,12.10
2023-02-14T13:01:38.498Z,15.40
2023-02-14T13:05:37.256Z,17.20
2023-02-14T13:09:28.769Z,16.90
2023-02-14T13:13:29.958Z,14.70
2023-02-14T13:17:06.445Z,13.20
2023-02-14T13:20:32.715Z,14.70
2023-02-14T13:24:19.877Z,10.80
2023-02-14T13:27:45.224Z,11.90
2023-02-14T13:31:41.942Z,15.50
2023-02-14T13:35:06.888Z,13.40
2023-02-14T13:38:49.025Z,17.90
2023-02-14T13:42:47.493Z,19.00
2023-02-14T13:46:31.614Z,13.40
2023-02-14T13:50:20.878Z,12.50
2023-02-14T13:54:19.174Z,17.10
2023-02-14T13:58:15.678Z,13.80
2023-02-14T14:02:27.614Z,13.60
2023-02-14T14:06:01.493Z,12.60
2023-02-14T14:09:41.750Z,12.30
2023-02-14T14:13:07.216Z,9.80
2023-02-14T14:16:58.527Z,12.80
2023-02-14T14:20:23.182Z,13.70
2023-02-14T14:24:33.354Z,14.60
2023-02-14T14:28:21.369Z,17.30
2023-02-14T14:31:45.154Z,13.00
2023-02-14T14:35:52.256Z,10.50
2023-02-14T14:39:40.750Z,14.80
2023-02-14T14:43:13.284Z,12.00
2023-02-14T14:46:43.353Z,15.10
2023-02-14T14:50:27.549Z,16.50
2023-02-14T14:54:03.426Z,10.50
2023-02-14T14:57:39.895Z,13.00
2023-02-14T15:01:30.888Z,11.30
2023-02-14T15:04:55.727Z,11.00
2023-02-14T15:08:34.430Z,11.10
2023-02-14T15:12:29.885Z,12.40
2023-02-14T15:16:29.347Z,14.50
2023-02-14T15:20:04.664Z,18.10
2023-02-14T15:23:30.288Z,15.10
2023-02-14T15:27:27.600Z,9.90
2023-02-14T15:31:08.776Z,14.40
2023-02-14T15:34:53.242Z,12.20
2023-02-14T15:38:18.111Z,13.10
2023-02-14T15:41:55.990Z,10.20
2023-02-14T15:45:31.334Z,10.10
2023-02-14T15:49:11.782Z,11.50
2023-02-14T15:52:48.171Z,13.60
2023-02-14T15:56:31.612Z,14.00
2023-02-14T16:00:06.593Z,18.30
2023-02-14T16:03:48.202Z,19.50
2023-02-14T16:07:28.454Z,12.90
2023-02-14T16:11:15.139Z,10.80
2023-02-14T16:14:44.200Z,14.50
2023-02-14T16:18:46.813Z,12.00
2023-02-14T16:22:11.360Z,12.80
2023-02-14T16:26:07.315Z,16.40
2023-02-14T16:29:29.148Z,18.70
2023-02-14T16:33:21.212Z,13.60
2023-02-14T16:36:48.789Z,18.40
2023-02-14T16:40:44.621Z,25.30
2023-02-14T16:44:07.027Z,20.60
2023-02-14T16:47:48.361Z,18.40
2023-02-14T16:51:43.929Z,16.30
2023-02-14T16:55:07.045Z,10.40
2023-02-14T16:58:46.223Z,16.60
2023-02-14T17:02:22.522Z,17.00
2023-02-14T17:06:26.934Z,23.70
2023-02-14T17:09:56.099Z,21.30
2023-02-14T17:13:27.765Z,23.50
2023-02-14T17:17:04.280Z,22.40
2023-02-14T17:21:01.232Z,25.10
2023-02-14T17:24:29.801Z,26.50
2023-02-14T17:28:03.633Z,18.10
2023-02-14T17:31:59.894Z,19.40
2023-02-14T17:35:40.701Z,17.90
2023-02-14T17:39:03.361Z,15.00
2023-02-14T17:42:40.595Z,8.50
2023-02-14T17:46:21.033Z,12.60
2023-02-14T17:49:55.398Z,19.10
2023-02-14T17:53:34.188Z,18.10
2023-02-14T17:57:12.643Z,23.70
2023-02-14T18:01:11.350Z,23.50
2023-02-14T18:04:36.368Z,20.50
2023-02-14T18:08:13.777Z,21.20
2023-02-14T18:11:50.529Z,14.20
2023-02-14T18:15:46.647Z,20.10
2023-02-14T18:19:28.195Z,14.80
2023-02-14T18:22:50.365Z,24.90
2023-02-14T18:26:27.967Z,19.10
2023-02-14T18:30:06.707Z,24.60
2023-02-14T18:34:04.542Z,21.20
2023-02-14T18:37:26.769Z,18.90
2023-02-14T18:41:06.301Z,20.20
2023-02-14T18:45:01.377Z,22.20
2023-02-14T18:48:45.108Z,22.30
2023-02-14T18:52:07.285Z,23.80
2023-02-14T18:56:10.430Z,25.90
2023-02-14T18:59:32.882Z,23.30
2023-02-14T19:03:15.037Z,24.10
2023-02-14T19:07:07.296Z,23.20
2023-02-14T19:10:37.596Z,21.80
2023-02-14T19:14:10.355Z,30.20
2023-02-14T19:17:45.058Z,30.30
2023-02-14T19:21:25.029Z,24.90
2023-02-14T19:25:22.481Z,29.20
2023-02-14T19:28:47.405Z,26.40
2023-02-14T19:32:22.719Z,25.30
2023-02-14T19:36:02.005Z,20.00
2023-02-14T19:39:38.833Z,20.50
2023-02-14T19:43:38.606Z,20.90
2023-02-14T19:47:04.220Z,22.60
2023-02-14T19:50:39.348Z,18.80
2023-02-14T19:54:39.563Z,22.90
2023-02-14T19:58:20.781Z,21.30
2023-02-14T20:01:54.548Z,29.40
2023-02-14T20:05:22.904Z,28.80
2023-02-14T20:08:59.940Z,24.60
2023-02-14T20:12:56.241Z,25.40
2023-02-14T20:16:25.904Z,19.00
2023-02-14T20:20:01.946Z,26.80
2023-02-14T20:24:04.804Z,25.80
2023-02-14T20:27:46.428Z,17.50
2023-02-14T20:31:31.026Z,21.20
2023-02-14T20:34:54.316Z,34.90
2023-02-14T20:38:33.629Z,36.50
2023-02-14T20:42:28.317Z,36.40
2023-02-14T20:45:50.812Z,27.40
2023-02-14T20:49:30.768Z,26.30
2023-02-14T20:53:07.843Z,27.60
2023-02-14T20:56:43.720Z,25.50
2023-02-14T21:00:25.664Z,28.90
2023-02-14T21:03:58.925Z,30.00
2023-02-14T21:07:38.347Z,28.50
2023-02-14T21:11:16.629Z,32.50
2023-02-14T21:15:11.264Z,26.70
2023-02-14T21:18:58.134Z,21.10
2023-02-14T21:22:20.374Z,13.90
2023-02-14T21:25:58.170Z,28.10
2023-02-14T21:29:35.609Z,24.60
2023-02-14T21:33:15.477Z,24.80
2023-02-14T21:37:10.461Z,31.40
2023-02-14T21:40:32.639Z,37.20
2023-02-14T21:44:30.199Z,18.10
2023-02-14T21:48:31.227Z,24.70
2023-02-14T21:51:53.902Z,23.30
2023-02-14T21:55:33.276Z,35.10
2023-02-14T21:59:14.308Z,40.50
2023-02-14T22:03:05.515Z,27.80
2023-02-14T22:06:52.274Z,49.30
2023-02-14T22:10:40.497Z,55.40
2023-02-14T22:18:07.291Z,59.90
2023-02-14T22:25:33.349Z,41.00
2023-02-14T22:36:37.374Z,43.50
2023-02-14T22:40:24.647Z,43.80
2023-02-14T22:47:49.649Z,47.80
2023-02-14T23:02:30.152Z,43.60
2023-02-14T23:06:17.792Z,33.70
2023-02-14T23:10:09.027Z,25.40
2023-02-14T23:14:17.857Z,25.10
2023-02-14T23:18:24.527Z,35.30
2023-02-14T23:25:49.397Z,22.60
2023-02-14T23:29:42.404Z,23.60
2023-02-14T23:36:46.041Z,19.70
2023-02-14T23:41:01.593Z,19.20
2023-02-14T23:44:44.846Z,23.50
2023-02-14T23:48:28.261Z,27.00
2023-02-14T23:52:11.539Z,28.60
2023-02-14T23:55:52.537Z,26.20
2023-02-14T23:59:39.411Z,19.00
